createdAt,value
2022-12-12T00:06:44.417Z,63.9
2022-12-12T00:21:53.710Z,72
2022-12-12T00:37:09.459Z,80.5
2022-12-12T00:52:18.992Z,88.3
2022-12-12T01:07:30.558Z,81
2022-12-12T01:22:40.306Z,67.8
2022-12-12T01:37:51.088Z,78.3
2022-12-12T01:53:00.155Z,70.1
2022-12-12T02:08:09.628Z,65
2022-12-12T02:23:19.075Z,75.1
2022-12-12T02:38:31.493Z,61.8
2022-12-12T02:53:40.964Z,65.5
2022-12-12T03:08:51.264Z,69.4
2022-12-12T03:24:00.468Z,58.6
2022-12-12T03:39:09.967Z,56.7
2022-12-12T03:54:19.606Z,51.5
2022-12-12T04:09:30.254Z,46.9
2022-12-12T04:24:39.559Z,59.8
2022-12-12T04:39:49.173Z,53.7
2022-12-12T04:54:58.860Z,55.4
2022-12-12T05:10:08.348Z,48.2
2022-12-12T05:25:18.102Z,49.1
2022-12-12T05:40:28.418Z,46.8
2022-12-12T05:55:37.808Z,40
2022-12-12T06:10:47.744Z,48
2022-12-12T06:25:57.312Z,41
2022-12-12T06:41:06.696Z,44.3
2022-12-12T06:56:16.353Z,45.8
2022-12-12T07:11:26.157Z,48.3
2022-12-12T07:26:35.558Z,36
2022-12-12T07:41:44.932Z,38.7
2022-12-12T07:56:56.204Z,38.7
2022-12-12T08:12:06.006Z,43.1
2022-12-12T08:27:16.391Z,42.6
2022-12-12T08:42:26.012Z,45.9
2022-12-12T08:57:36.050Z,50.2
2022-12-12T09:12:46.012Z,41.5
2022-12-12T09:27:55.550Z,56.9
2022-12-12T09:43:05.320Z,48
2022-12-12T09:58:14.995Z,43.6
2022-12-12T10:13:24.771Z,49.5
2022-12-12T10:28:34.695Z,58.3
2022-12-12T10:43:44.033Z,42.3
2022-12-12T10:58:53.427Z,49.2
2022-12-12T11:14:03.222Z,49.5
2022-12-12T11:29:13.139Z,49.2
2022-12-12T11:44:22.577Z,48.9
2022-12-12T11:59:32.640Z,32
2022-12-12T12:14:42.568Z,32.3
2022-12-12T12:29:51.980Z,42.7
2022-12-12T12:45:02.486Z,31.6
2022-12-12T13:00:13.995Z,30.9
2022-12-12T13:15:24.892Z,21.7
2022-12-12T13:30:35.536Z,26.6
2022-12-12T13:45:45.233Z,31.1
2022-12-12T14:00:55.079Z,32
2022-12-12T14:16:05.314Z,23.5
2022-12-12T14:31:15.180Z,32.3
2022-12-12T14:46:25.542Z,28.3
2022-12-12T15:01:34.765Z,27.5
2022-12-12T15:16:49.247Z,33.6
2022-12-12T15:31:59.519Z,32.3
2022-12-12T15:47:09.170Z,43.5
2022-12-12T16:02:18.518Z,42.2
2022-12-12T16:17:27.708Z,35
2022-12-12T16:32:37.028Z,47.8
2022-12-12T16:47:46.498Z,39.5
2022-12-12T17:02:56.082Z,37.7
2022-12-12T17:18:04.900Z,40.9
2022-12-12T17:33:16.963Z,40
2022-12-12T17:48:26.321Z,37.5
2022-12-12T18:03:36.383Z,39.2
2022-12-12T18:18:45.751Z,44.1
2022-12-12T18:33:55.166Z,45.8
2022-12-12T18:49:04.380Z,38.1
2022-12-12T19:04:23.962Z,54.4
2022-12-12T19:19:33.906Z,39.7
2022-12-12T19:34:43.208Z,39.4
2022-12-12T19:49:52.575Z,46.1
2022-12-12T20:05:01.663Z,50.5
2022-12-12T20:20:13.106Z,53.6
2022-12-12T20:35:23.673Z,54.2
2022-12-12T20:50:32.533Z,57.9
2022-12-12T21:05:41.479Z,50.8
2022-12-12T21:20:50.783Z,54.5
2022-12-12T21:36:00.611Z,41.7
2022-12-12T21:51:10.046Z,46
2022-12-12T22:06:19.514Z,45.3
2022-12-12T22:21:32.875Z,45.4
2022-12-12T22:36:42.497Z,38.8
2022-12-12T22:51:51.900Z,38
2022-12-12T23:07:01.099Z,37.5
2022-12-12T23:22:10.170Z,38.7
2022-12-12T23:37:19.614Z,41.6
2022-12-12T23:52:28.988Z,42
